sensor_id;sensor_type;location;lat;lon;timestamp;P1;durP1;ratioP1;P2;durP2;ratioP2
35128;SDS011;21301;43.626;10.580;2022-07-23T00:02:23;8.68;;;5.82;;
35128;SDS011;21301;43.626;10.580;2022-07-23T00:04:48;9.10;;;6.20;;
35128;SDS011;21301;43.626;10.580;2022-07-23T00:07:14;12.23;;;6.38;;
35128;SDS011;21301;43.626;10.580;2022-07-23T00:09:40;8.80;;;5.97;;
35128;SDS011;21301;43.626;10.580;2022-07-23T00:12:06;9.05;;;5.57;;
35128;SDS011;21301;43.626;10.580;2022-07-23T00:14:32;10.82;;;6.63;;
35128;SDS011;21301;43.626;10.580;2022-07-23T00:16:57;11.93;;;8.02;;
35128;SDS011;21301;43.626;10.580;2022-07-23T00:19:23;9.35;;;6.32;;
35128;SDS011;21301;43.626;10.580;2022-07-23T00:21:49;9.75;;;6.53;;
35128;SDS011;21301;43.626;10.580;2022-07-23T00:24:15;10.73;;;6.97;;
35128;SDS011;21301;43.626;10.580;2022-07-23T00:26:40;12.00;;;6.32;;
35128;SDS011;21301;43.626;10.580;2022-07-23T00:29:06;12.43;;;6.88;;
35128;SDS011;21301;43.626;10.580;2022-07-23T00:31:32;10.68;;;7.40;;
35128;SDS011;21301;43.626;10.580;2022-07-23T00:33:58;8.75;;;6.20;;
35128;SDS011;21301;43.626;10.580;2022-07-23T00:36:26;10.68;;;6.85;;
35128;SDS011;21301;43.626;10.580;2022-07-23T00:38:52;12.20;;;6.07;;
35128;SDS011;21301;43.626;10.580;2022-07-23T00:41:19;12.95;;;6.93;;
35128;SDS011;21301;43.626;10.580;2022-07-23T00:43:45;12.10;;;6.43;;
35128;SDS011;21301;43.626;10.580;2022-07-23T00:46:11;14.13;;;6.90;;
35128;SDS011;21301;43.626;10.580;2022-07-23T00:48:36;8.27;;;6.32;;
35128;SDS011;21301;43.626;10.580;2022-07-23T00:51:02;9.40;;;6.35;;
35128;SDS011;21301;43.626;10.580;2022-07-23T00:53:28;9.40;;;6.15;;
35128;SDS011;21301;43.626;10.580;2022-07-23T00:55:55;11.55;;;6.78;;
35128;SDS011;21301;43.626;10.580;2022-07-23T00:58:21;11.32;;;6.40;;
35128;SDS011;21301;43.626;10.580;2022-07-23T01:00:47;8.30;;;6.10;;
35128;SDS011;21301;43.626;10.580;2022-07-23T01:03:13;10.07;;;7.13;;
35128;SDS011;21301;43.626;10.580;2022-07-23T01:05:38;9.82;;;7.00;;
35128;SDS011;21301;43.626;10.580;2022-07-23T01:08:05;9.63;;;6.47;;
35128;SDS011;21301;43.626;10.580;2022-07-23T01:10:31;8.68;;;6.50;;
35128;SDS011;21301;43.626;10.580;2022-07-23T01:15:34;12.07;;;6.18;;
35128;SDS011;21301;43.626;10.580;2022-07-23T01:18:01;10.90;;;6.57;;
35128;SDS011;21301;43.626;10.580;2022-07-23T01:20:28;13.10;;;6.63;;
35128;SDS011;21301;43.626;10.580;2022-07-23T01:22:55;14.20;;;8.25;;
35128;SDS011;21301;43.626;10.580;2022-07-23T01:25:21;9.63;;;7.68;;
35128;SDS011;21301;43.626;10.580;2022-07-23T01:27:54;13.50;;;9.23;;
35128;SDS011;21301;43.626;10.580;2022-07-23T01:30:20;12.45;;;8.75;;
35128;SDS011;21301;43.626;10.580;2022-07-23T01:32:47;11.88;;;8.77;;
35128;SDS011;21301;43.626;10.580;2022-07-23T01:35:13;16.98;;;8.93;;
35128;SDS011;21301;43.626;10.580;2022-07-23T01:37:38;11.55;;;8.25;;
35128;SDS011;21301;43.626;10.580;2022-07-23T01:40:06;14.40;;;8.73;;
35128;SDS011;21301;43.626;10.580;2022-07-23T01:42:33;14.40;;;7.82;;
35128;SDS011;21301;43.626;10.580;2022-07-23T01:44:59;13.45;;;7.88;;
35128;SDS011;21301;43.626;10.580;2022-07-23T01:47:25;14.25;;;9.32;;
35128;SDS011;21301;43.626;10.580;2022-07-23T01:49:53;15.77;;;7.30;;
35128;SDS011;21301;43.626;10.580;2022-07-23T01:52:45;17.30;;;8.27;;
35128;SDS011;21301;43.626;10.580;2022-07-23T01:55:11;13.82;;;7.80;;
35128;SDS011;21301;43.626;10.580;2022-07-23T01:57:40;15.63;;;9.82;;
35128;SDS011;21301;43.626;10.580;2022-07-23T02:00:06;11.70;;;7.30;;
35128;SDS011;21301;43.626;10.580;2022-07-23T02:02:38;12.30;;;8.43;;
35128;SDS011;21301;43.626;10.580;2022-07-23T02:05:04;16.10;;;7.03;;
35128;SDS011;21301;43.626;10.580;2022-07-23T02:07:30;12.98;;;7.53;;
35128;SDS011;21301;43.626;10.580;2022-07-23T02:09:57;16.02;;;8.43;;
35128;SDS011;21301;43.626;10.580;2022-07-23T02:12:23;10.93;;;7.18;;
35128;SDS011;21301;43.626;10.580;2022-07-23T02:14:49;14.30;;;9.38;;
35128;SDS011;21301;43.626;10.580;2022-07-23T02:17:15;16.05;;;9.05;;
35128;SDS011;21301;43.626;10.580;2022-07-23T02:19:40;13.95;;;10.35;;
35128;SDS011;21301;43.626;10.580;2022-07-23T02:22:06;17.38;;;10.30;;
35128;SDS011;21301;43.626;10.580;2022-07-23T02:24:32;16.60;;;7.80;;
35128;SDS011;21301;43.626;10.580;2022-07-23T02:26:58;16.58;;;9.85;;
35128;SDS011;21301;43.626;10.580;2022-07-23T02:29:25;11.85;;;7.75;;
35128;SDS011;21301;43.626;10.580;2022-07-23T02:31:53;11.98;;;8.02;;
35128;SDS011;21301;43.626;10.580;2022-07-23T02:34:19;15.15;;;8.70;;
35128;SDS011;21301;43.626;10.580;2022-07-23T02:36:45;15.60;;;8.95;;
35128;SDS011;21301;43.626;10.580;2022-07-23T02:39:11;13.73;;;8.40;;
35128;SDS011;21301;43.626;10.580;2022-07-23T02:41:37;11.93;;;8.32;;
35128;SDS011;21301;43.626;10.580;2022-07-23T02:44:03;13.50;;;8.38;;
35128;SDS011;21301;43.626;10.580;2022-07-23T02:46:30;13.50;;;9.00;;
35128;SDS011;21301;43.626;10.580;2022-07-23T02:48:56;13.30;;;8.35;;
35128;SDS011;21301;43.626;10.580;2022-07-23T02:51:22;17.70;;;9.50;;
35128;SDS011;21301;43.626;10.580;2022-07-23T02:53:54;14.05;;;8.32;;
35128;SDS011;21301;43.626;10.580;2022-07-23T02:56:21;16.15;;;8.85;;
35128;SDS011;21301;43.626;10.580;2022-07-23T02:58:47;9.55;;;7.60;;
35128;SDS011;21301;43.626;10.580;2022-07-23T03:01:13;12.77;;;6.85;;
35128;SDS011;21301;43.626;10.580;2022-07-23T03:03:39;10.35;;;7.35;;
35128;SDS011;21301;43.626;10.580;2022-07-23T03:06:05;14.13;;;9.20;;
35128;SDS011;21301;43.626;10.580;2022-07-23T03:08:31;14.73;;;9.32;;
35128;SDS011;21301;43.626;10.580;2022-07-23T03:10:57;15.23;;;9.00;;
35128;SDS011;21301;43.626;10.580;2022-07-23T03:13:23;14.23;;;8.27;;
35128;SDS011;21301;43.626;10.580;2022-07-23T03:15:49;14.10;;;8.27;;
35128;SDS011;21301;43.626;10.580;2022-07-23T03:18:15;12.27;;;8.90;;
35128;SDS011;21301;43.626;10.580;2022-07-23T03:20:42;13.88;;;8.93;;
35128;SDS011;21301;43.626;10.580;2022-07-23T03:23:09;14.43;;;8.60;;
35128;SDS011;21301;43.626;10.580;2022-07-23T03:25:36;13.90;;;9.05;;
35128;SDS011;21301;43.626;10.580;2022-07-23T03:28:02;12.70;;;9.13;;
35128;SDS011;21301;43.626;10.580;2022-07-23T03:30:29;12.25;;;8.95;;
35128;SDS011;21301;43.626;10.580;2022-07-23T03:32:55;12.30;;;9.02;;
35128;SDS011;21301;43.626;10.580;2022-07-23T03:35:20;14.27;;;8.85;;
35128;SDS011;21301;43.626;10.580;2022-07-23T03:38:04;17.52;;;9.73;;
35128;SDS011;21301;43.626;10.580;2022-07-23T03:40:31;14.02;;;8.98;;
35128;SDS011;21301;43.626;10.580;2022-07-23T03:42:56;15.93;;;9.07;;
35128;SDS011;21301;43.626;10.580;2022-07-23T03:45:22;12.65;;;9.18;;
35128;SDS011;21301;43.626;10.580;2022-07-23T03:47:48;12.20;;;7.60;;
35128;SDS011;21301;43.626;10.580;2022-07-23T03:50:14;13.68;;;9.20;;
35128;SDS011;21301;43.626;10.580;2022-07-23T03:52:40;13.45;;;8.77;;
35128;SDS011;21301;43.626;10.580;2022-07-23T03:55:06;12.02;;;9.43;;
35128;SDS011;21301;43.626;10.580;2022-07-23T03:57:32;16.77;;;9.25;;
35128;SDS011;21301;43.626;10.580;2022-07-23T03:59:58;14.88;;;9.23;;
35128;SDS011;21301;43.626;10.580;2022-07-23T04:02:24;11.57;;;8.23;;
35128;SDS011;21301;43.626;10.580;2022-07-23T04:04:50;11.70;;;8.35;;
35128;SDS011;21301;43.626;10.580;2022-07-23T04:07:17;18.55;;;9.75;;
35128;SDS011;21301;43.626;10.580;2022-07-23T04:09:44;13.30;;;8.80;;
35128;SDS011;21301;43.626;10.580;2022-07-23T04:12:10;13.40;;;8.18;;
35128;SDS011;21301;43.626;10.580;2022-07-23T04:14:36;12.32;;;9.05;;
35128;SDS011;21301;43.626;10.580;2022-07-23T04:17:02;10.90;;;8.30;;
35128;SDS011;21301;43.626;10.580;2022-07-23T04:19:28;13.32;;;9.20;;
35128;SDS011;21301;43.626;10.580;2022-07-23T04:22:02;11.40;;;8.57;;
35128;SDS011;21301;43.626;10.580;2022-07-23T04:24:30;13.82;;;8.27;;
35128;SDS011;21301;43.626;10.580;2022-07-23T04:26:57;13.50;;;8.88;;
35128;SDS011;21301;43.626;10.580;2022-07-23T04:29:24;13.73;;;8.50;;
35128;SDS011;21301;43.626;10.580;2022-07-23T04:31:50;15.75;;;7.93;;
35128;SDS011;21301;43.626;10.580;2022-07-23T04:34:17;10.90;;;8.20;;
35128;SDS011;21301;43.626;10.580;2022-07-23T04:36:42;12.18;;;8.77;;
35128;SDS011;21301;43.626;10.580;2022-07-23T04:39:08;14.80;;;8.32;;
35128;SDS011;21301;43.626;10.580;2022-07-23T04:41:34;16.63;;;8.60;;
35128;SDS011;21301;43.626;10.580;2022-07-23T04:44:01;14.45;;;8.63;;
35128;SDS011;21301;43.626;10.580;2022-07-23T04:46:27;12.50;;;8.30;;
35128;SDS011;21301;43.626;10.580;2022-07-23T04:48:54;10.02;;;7.00;;
35128;SDS011;21301;43.626;10.580;2022-07-23T04:51:21;11.60;;;8.02;;
35128;SDS011;21301;43.626;10.580;2022-07-23T04:53:47;16.02;;;8.63;;
35128;SDS011;21301;43.626;10.580;2022-07-23T04:56:13;12.73;;;7.30;;
35128;SDS011;21301;43.626;10.580;2022-07-23T04:58:39;11.35;;;7.45;;
35128;SDS011;21301;43.626;10.580;2022-07-23T05:01:04;13.88;;;7.70;;
35128;SDS011;21301;43.626;10.580;2022-07-23T05:03:33;10.88;;;7.65;;
35128;SDS011;21301;43.626;10.580;2022-07-23T05:05:59;13.95;;;8.07;;
35128;SDS011;21301;43.626;10.580;2022-07-23T05:08:26;12.88;;;7.82;;
35128;SDS011;21301;43.626;10.580;2022-07-23T05:10:54;15.57;;;8.55;;
35128;SDS011;21301;43.626;10.580;2022-07-23T05:13:20;10.48;;;8.10;;
35128;SDS011;21301;43.626;10.580;2022-07-23T05:15:49;11.45;;;7.45;;
35128;SDS011;21301;43.626;10.580;2022-07-23T05:18:15;13.98;;;8.30;;
35128;SDS011;21301;43.626;10.580;2022-07-23T05:20:42;14.88;;;8.02;;
35128;SDS011;21301;43.626;10.580;2022-07-23T05:23:10;14.90;;;8.75;;
35128;SDS011;21301;43.626;10.580;2022-07-23T05:25:36;13.15;;;7.95;;
35128;SDS011;21301;43.626;10.580;2022-07-23T05:28:02;11.73;;;7.82;;
35128;SDS011;21301;43.626;10.580;2022-07-23T05:30:28;10.48;;;7.60;;
35128;SDS011;21301;43.626;10.580;2022-07-23T05:32:59;13.10;;;7.18;;
35128;SDS011;21301;43.626;10.580;2022-07-23T05:35:25;11.98;;;7.47;;
35128;SDS011;21301;43.626;10.580;2022-07-23T05:38:20;13.60;;;8.32;;
35128;SDS011;21301;43.626;10.580;2022-07-23T05:40:47;12.20;;;8.07;;
35128;SDS011;21301;43.626;10.580;2022-07-23T05:43:13;15.65;;;8.98;;
35128;SDS011;21301;43.626;10.580;2022-07-23T05:45:39;15.93;;;8.70;;
35128;SDS011;21301;43.626;10.580;2022-07-23T05:48:05;11.80;;;8.90;;
35128;SDS011;21301;43.626;10.580;2022-07-23T05:50:36;13.82;;;8.50;;
35128;SDS011;21301;43.626;10.580;2022-07-23T05:53:19;11.27;;;8.35;;
35128;SDS011;21301;43.626;10.580;2022-07-23T05:55:57;13.80;;;8.00;;
35128;SDS011;21301;43.626;10.580;2022-07-23T05:58:23;12.43;;;8.70;;
35128;SDS011;21301;43.626;10.580;2022-07-23T06:00:49;18.33;;;8.07;;
35128;SDS011;21301;43.626;10.580;2022-07-23T06:03:15;15.52;;;8.63;;
35128;SDS011;21301;43.626;10.580;2022-07-23T06:05:41;12.13;;;8.25;;
35128;SDS011;21301;43.626;10.580;2022-07-23T06:08:07;15.50;;;7.32;;
35128;SDS011;21301;43.626;10.580;2022-07-23T06:10:34;13.23;;;8.15;;
35128;SDS011;21301;43.626;10.580;2022-07-23T06:13:00;14.45;;;7.78;;
35128;SDS011;21301;43.626;10.580;2022-07-23T06:15:25;12.43;;;8.05;;
35128;SDS011;21301;43.626;10.580;2022-07-23T06:17:54;9.95;;;7.75;;
35128;SDS011;21301;43.626;10.580;2022-07-23T06:20:21;10.02;;;7.43;;
35128;SDS011;21301;43.626;10.580;2022-07-23T06:22:47;9.57;;;6.85;;
35128;SDS011;21301;43.626;10.580;2022-07-23T06:25:13;14.52;;;8.70;;
35128;SDS011;21301;43.626;10.580;2022-07-23T06:27:43;18.80;;;8.73;;
35128;SDS011;21301;43.626;10.580;2022-07-23T06:30:11;12.10;;;7.65;;
35128;SDS011;21301;43.626;10.580;2022-07-23T06:32:45;11.20;;;7.68;;
35128;SDS011;21301;43.626;10.580;2022-07-23T06:35:23;11.25;;;6.57;;
35128;SDS011;21301;43.626;10.580;2022-07-23T06:38:27;12.98;;;8.07;;
35128;SDS011;21301;43.626;10.580;2022-07-23T06:40:55;13.65;;;7.53;;
35128;SDS011;21301;43.626;10.580;2022-07-23T06:43:25;14.45;;;7.90;;
35128;SDS011;21301;43.626;10.580;2022-07-23T06:45:54;11.13;;;6.65;;
35128;SDS011;21301;43.626;10.580;2022-07-23T06:48:21;12.20;;;7.63;;
35128;SDS011;21301;43.626;10.580;2022-07-23T06:50:57;13.43;;;7.28;;
35128;SDS011;21301;43.626;10.580;2022-07-23T06:53:25;13.57;;;7.57;;
35128;SDS011;21301;43.626;10.580;2022-07-23T06:56:02;10.23;;;6.38;;
35128;SDS011;21301;43.626;10.580;2022-07-23T06:58:35;9.98;;;6.68;;
35128;SDS011;21301;43.626;10.580;2022-07-23T07:01:04;11.20;;;7.30;;
35128;SDS011;21301;43.626;10.580;2022-07-23T07:04:04;11.25;;;6.95;;
35128;SDS011;21301;43.626;10.580;2022-07-23T07:06:41;13.38;;;8.13;;
35128;SDS011;21301;43.626;10.580;2022-07-23T07:09:07;11.38;;;6.88;;
35128;SDS011;21301;43.626;10.580;2022-07-23T07:11:33;12.43;;;6.82;;
35128;SDS011;21301;43.626;10.580;2022-07-23T07:13:59;11.48;;;6.63;;
35128;SDS011;21301;43.626;10.580;2022-07-23T07:16:25;13.77;;;7.93;;
35128;SDS011;21301;43.626;10.580;2022-07-23T07:18:51;15.73;;;7.53;;
35128;SDS011;21301;43.626;10.580;2022-07-23T07:21:30;14.15;;;8.20;;
35128;SDS011;21301;43.626;10.580;2022-07-23T07:23:59;13.85;;;8.15;;
35128;SDS011;21301;43.626;10.580;2022-07-23T07:26:28;11.40;;;7.43;;
35128;SDS011;21301;43.626;10.580;2022-07-23T07:28:56;11.38;;;7.38;;
35128;SDS011;21301;43.626;10.580;2022-07-23T07:31:29;11.90;;;7.82;;
35128;SDS011;21301;43.626;10.580;2022-07-23T07:34:06;11.27;;;8.23;;
35128;SDS011;21301;43.626;10.580;2022-07-23T07:36:32;11.45;;;7.60;;
35128;SDS011;21301;43.626;10.580;2022-07-23T07:38:58;12.18;;;7.35;;
35128;SDS011;21301;43.626;10.580;2022-07-23T07:41:24;10.57;;;7.63;;
35128;SDS011;21301;43.626;10.580;2022-07-23T07:43:51;18.92;;;14.32;;
35128;SDS011;21301;43.626;10.580;2022-07-23T07:46:17;11.82;;;7.80;;
35128;SDS011;21301;43.626;10.580;2022-07-23T07:48:43;11.93;;;8.20;;
35128;SDS011;21301;43.626;10.580;2022-07-23T07:51:09;10.65;;;6.40;;
35128;SDS011;21301;43.626;10.580;2022-07-23T07:53:35;10.82;;;6.60;;
35128;SDS011;21301;43.626;10.580;2022-07-23T07:56:00;11.55;;;7.30;;
35128;SDS011;21301;43.626;10.580;2022-07-23T07:58:26;9.48;;;6.97;;
35128;SDS011;21301;43.626;10.580;2022-07-23T08:00:52;11.68;;;6.63;;
35128;SDS011;21301;43.626;10.580;2022-07-23T08:03:18;16.67;;;8.05;;
35128;SDS011;21301;43.626;10.580;2022-07-23T08:05:44;13.38;;;7.28;;
35128;SDS011;21301;43.626;10.580;2022-07-23T08:08:11;12.07;;;6.70;;
35128;SDS011;21301;43.626;10.580;2022-07-23T08:11:01;10.45;;;6.72;;
35128;SDS011;21301;43.626;10.580;2022-07-23T08:13:27;10.50;;;6.45;;
35128;SDS011;21301;43.626;10.580;2022-07-23T08:15:52;9.77;;;6.82;;
35128;SDS011;21301;43.626;10.580;2022-07-23T08:18:19;8.32;;;6.15;;
35128;SDS011;21301;43.626;10.580;2022-07-23T08:20:45;11.20;;;7.00;;
35128;SDS011;21301;43.626;10.580;2022-07-23T08:23:11;12.13;;;6.35;;
35128;SDS011;21301;43.626;10.580;2022-07-23T08:25:37;9.27;;;6.30;;
35128;SDS011;21301;43.626;10.580;2022-07-23T08:28:06;11.02;;;7.18;;
35128;SDS011;21301;43.626;10.580;2022-07-23T08:30:34;10.63;;;5.95;;
35128;SDS011;21301;43.626;10.580;2022-07-23T08:33:02;10.10;;;6.50;;
35128;SDS011;21301;43.626;10.580;2022-07-23T08:35:39;9.82;;;6.68;;
35128;SDS011;21301;43.626;10.580;2022-07-23T08:38:11;11.02;;;5.97;;
35128;SDS011;21301;43.626;10.580;2022-07-23T08:40:39;10.10;;;6.30;;
35128;SDS011;21301;43.626;10.580;2022-07-23T08:45:38;11.35;;;6.13;;
35128;SDS011;21301;43.626;10.580;2022-07-23T08:48:09;11.88;;;5.90;;
35128;SDS011;21301;43.626;10.580;2022-07-23T08:50:38;10.82;;;6.53;;
35128;SDS011;21301;43.626;10.580;2022-07-23T08:53:11;8.13;;;6.22;;
35128;SDS011;21301;43.626;10.580;2022-07-23T08:55:37;15.02;;;6.57;;
35128;SDS011;21301;43.626;10.580;2022-07-23T08:58:04;7.82;;;5.55;;
35128;SDS011;21301;43.626;10.580;2022-07-23T09:00:31;12.52;;;6.38;;
35128;SDS011;21301;43.626;10.580;2022-07-23T09:02:57;8.55;;;5.10;;
35128;SDS011;21301;43.626;10.580;2022-07-23T09:05:23;8.73;;;5.60;;
35128;SDS011;21301;43.626;10.580;2022-07-23T09:16:05;10.07;;;5.78;;
35128;SDS011;21301;43.626;10.580;2022-07-23T09:18:32;9.90;;;6.40;;
35128;SDS011;21301;43.626;10.580;2022-07-23T09:21:08;12.48;;;6.53;;
35128;SDS011;21301;43.626;10.580;2022-07-23T09:23:45;15.15;;;6.20;;
35128;SDS011;21301;43.626;10.580;2022-07-23T09:26:16;17.30;;;7.63;;
35128;SDS011;21301;43.626;10.580;2022-07-23T09:28:50;14.00;;;6.78;;
35128;SDS011;21301;43.626;10.580;2022-07-23T09:31:31;9.80;;;5.70;;
35128;SDS011;21301;43.626;10.580;2022-07-23T09:34:08;9.50;;;5.80;;
35128;SDS011;21301;43.626;10.580;2022-07-23T09:36:42;11.18;;;5.80;;
35128;SDS011;21301;43.626;10.580;2022-07-23T09:39:09;7.82;;;5.57;;
35128;SDS011;21301;43.626;10.580;2022-07-23T09:41:36;12.15;;;5.75;;
35128;SDS011;21301;43.626;10.580;2022-07-23T09:44:10;8.40;;;5.97;;
35128;SDS011;21301;43.626;10.580;2022-07-23T09:46:38;10.45;;;7.15;;
35128;SDS011;21301;43.626;10.580;2022-07-23T09:49:15;8.40;;;5.47;;
35128;SDS011;21301;43.626;10.580;2022-07-23T09:51:51;8.30;;;4.78;;
35128;SDS011;21301;43.626;10.580;2022-07-23T09:56:55;6.55;;;5.13;;
35128;SDS011;21301;43.626;10.580;2022-07-23T09:59:26;7.18;;;4.93;;
35128;SDS011;21301;43.626;10.580;2022-07-23T10:01:58;8.43;;;5.35;;
35128;SDS011;21301;43.626;10.580;2022-07-23T10:04:26;12.65;;;5.25;;
35128;SDS011;21301;43.626;10.580;2022-07-23T10:07:12;8.80;;;5.10;;
35128;SDS011;21301;43.626;10.580;2022-07-23T10:10:01;13.45;;;5.03;;
35128;SDS011;21301;43.626;10.580;2022-07-23T10:12:46;9.45;;;5.10;;
35128;SDS011;21301;43.626;10.580;2022-07-23T10:15:16;11.18;;;4.88;;
35128;SDS011;21301;43.626;10.580;2022-07-23T10:17:42;5.93;;;4.07;;
35128;SDS011;21301;43.626;10.580;2022-07-23T10:20:08;9.20;;;4.97;;
35128;SDS011;21301;43.626;10.580;2022-07-23T10:22:38;7.47;;;4.50;;
35128;SDS011;21301;43.626;10.580;2022-07-23T10:27:59;9.48;;;4.07;;
35128;SDS011;21301;43.626;10.580;2022-07-23T10:30:57;8.68;;;4.63;;
35128;SDS011;21301;43.626;10.580;2022-07-23T10:41:32;9.30;;;4.97;;
35128;SDS011;21301;43.626;10.580;2022-07-23T10:44:12;10.63;;;4.85;;
35128;SDS011;21301;43.626;10.580;2022-07-23T10:46:53;5.65;;;3.75;;
35128;SDS011;21301;43.626;10.580;2022-07-23T10:49:39;6.50;;;3.72;;
35128;SDS011;21301;43.626;10.580;2022-07-23T10:54:45;7.97;;;4.25;;
35128;SDS011;21301;43.626;10.580;2022-07-23T10:57:17;7.47;;;4.20;;
35128;SDS011;21301;43.626;10.580;2022-07-23T11:02:31;6.88;;;4.45;;
35128;SDS011;21301;43.626;10.580;2022-07-23T11:05:03;5.50;;;4.15;;
35128;SDS011;21301;43.626;10.580;2022-07-23T11:07:31;6.95;;;4.70;;
35128;SDS011;21301;43.626;10.580;2022-07-23T11:09:58;7.15;;;4.10;;
35128;SDS011;21301;43.626;10.580;2022-07-23T11:20:20;7.32;;;4.00;;
35128;SDS011;21301;43.626;10.580;2022-07-23T11:22:48;8.88;;;4.00;;
35128;SDS011;21301;43.626;10.580;2022-07-23T11:27:55;7.68;;;4.50;;
35128;SDS011;21301;43.626;10.580;2022-07-23T11:30:41;8.75;;;4.72;;
35128;SDS011;21301;43.626;10.580;2022-07-23T11:35:38;8.23;;;4.57;;
35128;SDS011;21301;43.626;10.580;2022-07-23T11:40:36;6.70;;;4.55;;
35128;SDS011;21301;43.626;10.580;2022-07-23T11:43:03;6.18;;;4.00;;
35128;SDS011;21301;43.626;10.580;2022-07-23T11:45:36;8.48;;;4.57;;
35128;SDS011;21301;43.626;10.580;2022-07-23T11:48:07;7.32;;;4.07;;
35128;SDS011;21301;43.626;10.580;2022-07-23T11:50:37;7.78;;;4.72;;
35128;SDS011;21301;43.626;10.580;2022-07-23T11:53:03;9.40;;;3.97;;
35128;SDS011;21301;43.626;10.580;2022-07-23T11:55:29;13.77;;;4.72;;
35128;SDS011;21301;43.626;10.580;2022-07-23T11:58:01;12.48;;;5.07;;
35128;SDS011;21301;43.626;10.580;2022-07-23T12:00:30;9.10;;;4.60;;
35128;SDS011;21301;43.626;10.580;2022-07-23T12:03:03;7.25;;;4.40;;
35128;SDS011;21301;43.626;10.580;2022-07-23T12:05:30;10.25;;;4.95;;
35128;SDS011;21301;43.626;10.580;2022-07-23T12:07:57;7.20;;;4.07;;
35128;SDS011;21301;43.626;10.580;2022-07-23T12:10:38;8.95;;;4.60;;
35128;SDS011;21301;43.626;10.580;2022-07-23T12:13:09;11.38;;;4.90;;
35128;SDS011;21301;43.626;10.580;2022-07-23T12:15:42;7.88;;;4.63;;
35128;SDS011;21301;43.626;10.580;2022-07-23T12:18:10;6.37;;;4.20;;
35128;SDS011;21301;43.626;10.580;2022-07-23T12:20:39;10.63;;;4.72;;
35128;SDS011;21301;43.626;10.580;2022-07-23T12:23:07;9.20;;;4.32;;
35128;SDS011;21301;43.626;10.580;2022-07-23T12:25:35;8.93;;;5.00;;
35128;SDS011;21301;43.626;10.580;2022-07-23T12:28:13;7.05;;;5.07;;
35128;SDS011;21301;43.626;10.580;2022-07-23T12:33:13;8.77;;;4.55;;
35128;SDS011;21301;43.626;10.580;2022-07-23T12:35:45;6.65;;;4.22;;
35128;SDS011;21301;43.626;10.580;2022-07-23T12:38:12;8.45;;;3.92;;
35128;SDS011;21301;43.626;10.580;2022-07-23T12:43:18;5.70;;;4.00;;
35128;SDS011;21301;43.626;10.580;2022-07-23T12:45:51;9.40;;;4.93;;
35128;SDS011;21301;43.626;10.580;2022-07-23T12:48:21;9.25;;;4.68;;
35128;SDS011;21301;43.626;10.580;2022-07-23T12:51:00;7.22;;;4.20;;
35128;SDS011;21301;43.626;10.580;2022-07-23T12:58:39;9.25;;;5.00;;
35128;SDS011;21301;43.626;10.580;2022-07-23T13:01:06;6.45;;;4.45;;
35128;SDS011;21301;43.626;10.580;2022-07-23T13:03:34;7.95;;;5.13;;
35128;SDS011;21301;43.626;10.580;2022-07-23T13:06:06;11.32;;;4.93;;
35128;SDS011;21301;43.626;10.580;2022-07-23T13:08:36;6.97;;;4.57;;
35128;SDS011;21301;43.626;10.580;2022-07-23T13:11:12;6.72;;;4.75;;
35128;SDS011;21301;43.626;10.580;2022-07-23T13:13:50;6.05;;;4.05;;
35128;SDS011;21301;43.626;10.580;2022-07-23T13:16:16;6.88;;;4.63;;
35128;SDS011;21301;43.626;10.580;2022-07-23T13:18:44;9.30;;;4.10;;
35128;SDS011;21301;43.626;10.580;2022-07-23T13:21:10;8.77;;;4.60;;
35128;SDS011;21301;43.626;10.580;2022-07-23T13:23:42;6.57;;;4.53;;
35128;SDS011;21301;43.626;10.580;2022-07-23T13:26:16;6.85;;;4.32;;
35128;SDS011;21301;43.626;10.580;2022-07-23T13:28:43;10.48;;;5.13;;
35128;SDS011;21301;43.626;10.580;2022-07-23T13:31:09;7.47;;;4.85;;
35128;SDS011;21301;43.626;10.580;2022-07-23T13:33:37;8.27;;;4.80;;
35128;SDS011;21301;43.626;10.580;2022-07-23T13:36:05;7.47;;;4.20;;
35128;SDS011;21301;43.626;10.580;2022-07-23T13:38:37;7.35;;;4.60;;
35128;SDS011;21301;43.626;10.580;2022-07-23T13:41:04;7.57;;;4.60;;
35128;SDS011;21301;43.626;10.580;2022-07-23T13:43:35;9.30;;;4.63;;
35128;SDS011;21301;43.626;10.580;2022-07-23T13:46:04;7.40;;;4.63;;
35128;SDS011;21301;43.626;10.580;2022-07-23T13:48:30;11.38;;;5.70;;
35128;SDS011;21301;43.626;10.580;2022-07-23T13:50:57;9.05;;;5.18;;
35128;SDS011;21301;43.626;10.580;2022-07-23T13:53:26;7.32;;;4.60;;
35128;SDS011;21301;43.626;10.580;2022-07-23T13:55:54;8.68;;;4.18;;
35128;SDS011;21301;43.626;10.580;2022-07-23T13:58:22;6.45;;;4.45;;
35128;SDS011;21301;43.626;10.580;2022-07-23T14:00:51;7.75;;;4.40;;
35128;SDS011;21301;43.626;10.580;2022-07-23T14:03:28;6.40;;;4.30;;
35128;SDS011;21301;43.626;10.580;2022-07-23T14:05:57;8.65;;;4.80;;
35128;SDS011;21301;43.626;10.580;2022-07-23T14:08:24;7.95;;;4.47;;
35128;SDS011;21301;43.626;10.580;2022-07-23T14:10:50;6.63;;;4.05;;
35128;SDS011;21301;43.626;10.580;2022-07-23T14:13:16;7.50;;;4.07;;
35128;SDS011;21301;43.626;10.580;2022-07-23T14:15:48;7.72;;;4.20;;
35128;SDS011;21301;43.626;10.580;2022-07-23T14:18:21;9.45;;;4.53;;
35128;SDS011;21301;43.626;10.580;2022-07-23T14:20:47;6.72;;;4.10;;
35128;SDS011;21301;43.626;10.580;2022-07-23T14:23:16;7.10;;;4.85;;
35128;SDS011;21301;43.626;10.580;2022-07-23T14:25:42;8.38;;;4.18;;
35128;SDS011;21301;43.626;10.580;2022-07-23T14:28:09;8.70;;;4.65;;
35128;SDS011;21301;43.626;10.580;2022-07-23T14:30:40;5.43;;;4.00;;
35128;SDS011;21301;43.626;10.580;2022-07-23T14:33:09;7.50;;;4.25;;
35128;SDS011;21301;43.626;10.580;2022-07-23T14:35:35;9.50;;;4.47;;
35128;SDS011;21301;43.626;10.580;2022-07-23T14:38:03;9.00;;;5.45;;
35128;SDS011;21301;43.626;10.580;2022-07-23T14:40:36;5.75;;;4.43;;
35128;SDS011;21301;43.626;10.580;2022-07-23T14:43:02;9.90;;;4.60;;
35128;SDS011;21301;43.626;10.580;2022-07-23T14:45:29;6.78;;;4.38;;
35128;SDS011;21301;43.626;10.580;2022-07-23T14:47:55;7.32;;;4.43;;
35128;SDS011;21301;43.626;10.580;2022-07-23T14:50:21;6.43;;;4.45;;
35128;SDS011;21301;43.626;10.580;2022-07-23T14:52:47;6.72;;;3.92;;
35128;SDS011;21301;43.626;10.580;2022-07-23T14:55:16;7.88;;;4.35;;
35128;SDS011;21301;43.626;10.580;2022-07-23T14:57:43;7.10;;;4.82;;
35128;SDS011;21301;43.626;10.580;2022-07-23T15:00:09;10.55;;;5.53;;
35128;SDS011;21301;43.626;10.580;2022-07-23T15:02:46;7.57;;;4.35;;
35128;SDS011;21301;43.626;10.580;2022-07-23T15:05:20;5.53;;;3.83;;
35128;SDS011;21301;43.626;10.580;2022-07-23T15:07:47;8.50;;;4.40;;
35128;SDS011;21301;43.626;10.580;2022-07-23T15:10:16;5.85;;;3.83;;
35128;SDS011;21301;43.626;10.580;2022-07-23T15:12:42;10.82;;;4.85;;
35128;SDS011;21301;43.626;10.580;2022-07-23T15:15:13;7.60;;;4.35;;
35128;SDS011;21301;43.626;10.580;2022-07-23T15:17:41;10.45;;;4.57;;
35128;SDS011;21301;43.626;10.580;2022-07-23T15:20:10;7.57;;;4.13;;
35128;SDS011;21301;43.626;10.580;2022-07-23T15:22:36;6.10;;;4.15;;
35128;SDS011;21301;43.626;10.580;2022-07-23T15:25:02;6.35;;;4.53;;
35128;SDS011;21301;43.626;10.580;2022-07-23T15:27:28;9.90;;;5.57;;
35128;SDS011;21301;43.626;10.580;2022-07-23T15:29:56;10.43;;;5.15;;
35128;SDS011;21301;43.626;10.580;2022-07-23T15:32:22;9.75;;;4.78;;
35128;SDS011;21301;43.626;10.580;2022-07-23T15:34:51;7.13;;;4.30;;